Back to Top

Language: 

My Weather Underground Personal Weather Station Historical Data with Graphs...

Delerius Weather Station Historical Data
Daily Summary for August 20, 2017 Units:  English    Metric   Both
« Previous Day
Next Day »
Daily Weekly Monthly Yearly Custom
  High: Low: Average:
Temperature: 67.6 °F 51.1 °F 59.7 °F
Dew Point: 54.1 °F 48.1 °F 50.8 °F
Humidity: 91 % 52 % 74 %
Wind Speed: 13.0 mph 0.0 mph 5.9 mph
Wind Gust: 22.0 mph - -
Wind:- - West
Pressure: 30.18 in 30.04 in -
Precipitation: 0.00 in    
Historical Graphs
 
 
Tabular Data for August 20, 2017
Time Temperature Dew Point Pressure Wind Wind Speed Wind Gust Humidity Rainfall Rate (Hourly) solar Conditions
00:00 56.8 °F 51.4 °F 30.04 in West 10.0 mph 18.0 mph 82 % 0.00 in 0 W/m2
00:05 56.8 °F 51.7 °F 30.04 in West 11.0 mph 20.0 mph 83 % 0.00 in 0 W/m2
00:10 56.8 °F 51.4 °F 30.04 in West 12.0 mph 20.0 mph 82 % 0.00 in 0 W/m2
00:15 56.8 °F 51.4 °F 30.04 in West 12.0 mph 20.0 mph 82 % 0.00 in 0 W/m2
00:20 56.8 °F 51.4 °F 30.04 in West 12.0 mph 20.0 mph 82 % 0.00 in 0 W/m2
00:25 56.8 °F 51.4 °F 30.04 in West 11.0 mph 20.0 mph 82 % 0.00 in 0 W/m2
00:30 56.8 °F 51.4 °F 30.05 in West 10.0 mph 20.0 mph 82 % 0.00 in 0 W/m2
00:36 56.7 °F 51.2 °F 30.04 in West 10.0 mph 16.0 mph 82 % 0.00 in 0 W/m2
00:41 56.7 °F 51.2 °F 30.04 in West 10.0 mph 16.0 mph 82 % 0.00 in 0 W/m2
00:46 56.5 °F 51.1 °F 30.04 in West 10.0 mph 18.0 mph 82 % 0.00 in 0 W/m2
00:51 56.5 °F 51.4 °F 30.04 in West 11.0 mph 22.0 mph 83 % 0.00 in 0 W/m2
00:56 56.5 °F 51.1 °F 30.05 in West 12.0 mph 22.0 mph 82 % 0.00 in 0 W/m2
01:01 56.7 °F 51.2 °F 30.05 in West 12.0 mph 19.0 mph 82 % 0.00 in 0 W/m2
01:06 56.5 °F 51.1 °F 30.05 in West 11.0 mph 19.0 mph 82 % 0.00 in 0 W/m2
01:11 56.3 °F 50.9 °F 30.05 in West 10.0 mph 19.0 mph 82 % 0.00 in 0 W/m2
01:16 56.1 °F 50.7 °F 30.05 in West 9.0 mph 19.0 mph 82 % 0.00 in 0 W/m2
01:21 55.9 °F 50.9 °F 30.05 in West 10.0 mph 16.0 mph 83 % 0.00 in 0 W/m2
01:26 55.9 °F 50.9 °F 30.06 in West 10.0 mph 18.0 mph 83 % 0.00 in 0 W/m2
01:31 55.8 °F 50.7 °F 30.06 in West 11.0 mph 18.0 mph 83 % 0.00 in 0 W/m2
01:36 55.8 °F 50.7 °F 30.06 in West 11.0 mph 18.0 mph 83 % 0.00 in 0 W/m2
01:41 55.6 °F 50.8 °F 30.06 in West 10.0 mph 18.0 mph 84 % 0.00 in 0 W/m2
01:46 55.4 °F 50.6 °F 30.06 in West 10.0 mph 16.0 mph 84 % 0.00 in 0 W/m2
01:51 55.2 °F 50.5 °F 30.06 in West 10.0 mph 16.0 mph 84 % 0.00 in 0 W/m2
01:56 55.2 °F 50.5 °F 30.07 in West 10.0 mph 16.0 mph 84 % 0.00 in 0 W/m2
02:01 55.0 °F 50.6 °F 30.07 in West 9.0 mph 16.0 mph 85 % 0.00 in 0 W/m2
02:07 55.0 °F 50.6 °F 30.07 in West 9.0 mph 15.0 mph 85 % 0.00 in 0 W/m2
02:11 54.9 °F 50.4 °F 30.07 in West 9.0 mph 18.0 mph 85 % 0.00 in 0 W/m2
02:16 54.9 °F 50.4 °F 30.07 in West 9.0 mph 18.0 mph 85 % 0.00 in 0 W/m2
02:22 54.9 °F 50.4 °F 30.07 in West 9.0 mph 18.0 mph 85 % 0.00 in 0 W/m2
02:27 54.9 °F 50.4 °F 30.07 in West 9.0 mph 16.0 mph 85 % 0.00 in 0 W/m2
02:32 54.7 °F 50.6 °F 30.07 in West 9.0 mph 15.0 mph 86 % 0.00 in 0 W/m2
02:37 54.7 °F 50.6 °F 30.07 in West 9.0 mph 15.0 mph 86 % 0.00 in 0 W/m2
02:42 54.7 °F 50.6 °F 30.07 in West 8.0 mph 15.0 mph 86 % 0.00 in 0 W/m2
02:47 54.5 °F 50.4 °F 30.08 in West 7.0 mph 12.0 mph 86 % 0.00 in 0 W/m2
02:52 54.5 °F 50.4 °F 30.08 in West 7.0 mph 12.0 mph 86 % 0.00 in 0 W/m2
02:57 54.3 °F 50.2 °F 30.08 in West 8.0 mph 13.0 mph 86 % 0.00 in 0 W/m2
03:02 54.3 °F 50.2 °F 30.08 in West 9.0 mph 14.0 mph 86 % 0.00 in 0 W/m2
03:07 54.3 °F 50.5 °F 30.08 in West 8.0 mph 14.0 mph 87 % 0.00 in 0 W/m2
03:12 54.3 °F 50.5 °F 30.08 in West 9.0 mph 15.0 mph 87 % 0.00 in 0 W/m2
03:17 54.1 °F 50.4 °F 30.08 in WNW 10.0 mph 15.0 mph 87 % 0.00 in 0 W/m2
03:22 54.1 °F 50.4 °F 30.08 in WNW 10.0 mph 16.0 mph 87 % 0.00 in 0 W/m2
03:27 54.1 °F 50.4 °F 30.08 in WNW 10.0 mph 20.0 mph 87 % 0.00 in 0 W/m2
03:32 54.1 °F 50.4 °F 30.08 in WNW 10.0 mph 20.0 mph 87 % 0.00 in 0 W/m2
03:37 54.0 °F 50.2 °F 30.08 in WNW 10.0 mph 19.0 mph 87 % 0.00 in 0 W/m2
03:42 54.0 °F 50.2 °F 30.08 in WNW 11.0 mph 16.0 mph 87 % 0.00 in 0 W/m2
03:47 54.0 °F 50.2 °F 30.08 in WNW 11.0 mph 19.0 mph 87 % 0.00 in 0 W/m2
03:52 54.0 °F 50.2 °F 30.09 in WNW 11.0 mph 19.0 mph 87 % 0.00 in 0 W/m2
03:57 53.8 °F 50.0 °F 30.09 in WNW 11.0 mph 20.0 mph 87 % 0.00 in 0 W/m2
04:02 54.0 °F 50.2 °F 30.09 in WNW 12.0 mph 20.0 mph 87 % 0.00 in 0 W/m2
04:07 54.0 °F 50.2 °F 30.09 in WNW 13.0 mph 21.0 mph 87 % 0.00 in 0 W/m2
04:12 54.0 °F 50.2 °F 30.08 in WNW 12.0 mph 21.0 mph 87 % 0.00 in 0 W/m2
04:17 54.0 °F 50.2 °F 30.08 in WNW 12.0 mph 19.0 mph 87 % 0.00 in 0 W/m2
04:20 54.0 °F 50.2 °F 30.08 in WNW 12.0 mph 19.0 mph 87 % 0.00 in 0 W/m2
04:22 54.0 °F 50.2 °F 30.08 in WNW 12.0 mph 22.0 mph 87 % 0.00 in 0 W/m2
04:24 54.0 °F 50.2 °F 30.08 in WNW 12.0 mph 22.0 mph 87 % 0.00 in 0 W/m2
04:25 54.0 °F 50.2 °F 30.08 in WNW 12.0 mph 22.0 mph 87 % 0.00 in 0 W/m2
04:30 54.0 °F 50.2 °F 30.08 in WNW 12.0 mph 22.0 mph 87 % 0.00 in 0 W/m2
04:35 54.0 °F 50.2 °F 30.08 in WNW 11.0 mph 20.0 mph 87 % 0.00 in 0 W/m2
04:40 53.8 °F 50.0 °F 30.08 in WNW 12.0 mph 21.0 mph 87 % 0.00 in 0 W/m2
04:45 53.8 °F 50.0 °F 30.08 in WNW 12.0 mph 21.0 mph 87 % 0.00 in 0 W/m2
04:50 53.8 °F 50.0 °F 30.08 in WNW 11.0 mph 21.0 mph 87 % 0.00 in 0 W/m2
04:55 53.6 °F 49.8 °F 30.09 in WNW 11.0 mph 20.0 mph 87 % 0.00 in 0 W/m2
05:00 53.4 °F 49.6 °F 30.09 in WNW 10.0 mph 20.0 mph 87 % 0.00 in 0 W/m2
05:05 53.2 °F 49.5 °F 30.09 in WNW 9.0 mph 15.0 mph 87 % 0.00 in 0 W/m2
05:10 53.2 °F 49.5 °F 30.09 in WNW 9.0 mph 15.0 mph 87 % 0.00 in 0 W/m2
05:15 53.1 °F 49.3 °F 30.09 in WNW 9.0 mph 13.0 mph 87 % 0.00 in 0 W/m2
05:21 53.1 °F 49.6 °F 30.09 in WNW 8.0 mph 14.0 mph 88 % 0.00 in 0 W/m2
05:26 53.1 °F 49.6 °F 30.10 in WNW 7.0 mph 14.0 mph 88 % 0.00 in 0 W/m2
05:31 52.9 °F 49.4 °F 30.10 in WNW 6.0 mph 10.0 mph 88 % 0.00 in 0 W/m2
05:36 52.7 °F 49.2 °F 30.10 in WNW 5.0 mph 10.0 mph 88 % 0.00 in 0 W/m2
05:41 52.5 °F 49.1 °F 30.11 in West 5.0 mph 9.0 mph 88 % 0.00 in 0 W/m2
05:46 52.3 °F 48.9 °F 30.10 in West 5.0 mph 7.0 mph 88 % 0.00 in 0 W/m2
05:51 52.2 °F 48.7 °F 30.10 in West 5.0 mph 9.0 mph 88 % 0.00 in 0 W/m2
05:56 52.0 °F 48.8 °F 30.10 in West 6.0 mph 9.0 mph 89 % 0.00 in 5 W/m2
06:01 51.6 °F 48.5 °F 30.11 in WNW 5.0 mph 8.0 mph 89 % 0.00 in 9 W/m2
06:06 51.6 °F 48.5 °F 30.11 in West 4.0 mph 7.0 mph 89 % 0.00 in 12 W/m2
06:11 51.4 °F 48.3 °F 30.11 in West 3.0 mph 6.0 mph 89 % 0.00 in 14 W/m2
06:16 51.3 °F 48.1 °F 30.11 in West 4.0 mph 6.0 mph 89 % 0.00 in 18 W/m2
06:21 51.3 °F 48.4 °F 30.11 in West 4.0 mph 7.0 mph 90 % 0.00 in 23 W/m2
06:26 51.1 °F 48.2 °F 30.11 in West 3.0 mph 7.0 mph 90 % 0.00 in 26 W/m2
06:31 51.1 °F 48.2 °F 30.11 in West 2.0 mph 5.0 mph 90 % 0.00 in 32 W/m2
06:36 51.1 °F 48.2 °F 30.12 in West 2.0 mph 5.0 mph 90 % 0.00 in 35 W/m2
06:41 51.1 °F 48.2 °F 30.12 in West 2.0 mph 5.0 mph 90 % 0.00 in 42 W/m2
06:46 51.1 °F 48.5 °F 30.12 in West 2.0 mph 9.0 mph 91 % 0.00 in 46 W/m2
06:51 51.3 °F 48.7 °F 30.12 in WNW 4.0 mph 10.0 mph 91 % 0.00 in 49 W/m2
06:56 51.4 °F 48.9 °F 30.12 in WNW 4.0 mph 10.0 mph 91 % 0.00 in 51 W/m2
07:01 51.6 °F 49.1 °F 30.12 in WNW 4.0 mph 7.0 mph 91 % 0.00 in 53 W/m2
07:06 52.0 °F 49.4 °F 30.12 in WNW 5.0 mph 7.0 mph 91 % 0.00 in 58 W/m2
07:11 52.2 °F 49.6 °F 30.12 in West 4.0 mph 8.0 mph 91 % 0.00 in 67 W/m2
07:16 52.3 °F 49.8 °F 30.12 in West 2.0 mph 8.0 mph 91 % 0.00 in 100 W/m2
07:21 52.7 °F 50.1 °F 30.12 in West 1.0 mph 6.0 mph 91 % 0.00 in 120 W/m2
07:26 53.1 °F 50.2 °F 30.12 in WSW 1.0 mph 6.0 mph 90 % 0.00 in 125 W/m2
07:31 53.4 °F 50.6 °F 30.12 in WSW 1.0 mph 5.0 mph 90 % 0.00 in 132 W/m2
07:36 54.0 °F 51.1 °F 30.13 in WSW 1.0 mph 4.0 mph 90 % 0.00 in 153 W/m2
07:41 54.3 °F 50.8 °F 30.13 in ESE 1.0 mph 6.0 mph 88 % 0.00 in 179 W/m2
07:46 54.9 °F 51.4 °F 30.13 in ENE 1.0 mph 6.0 mph 88 % 0.00 in 171 W/m2
07:51 55.0 °F 51.2 °F 30.14 in West 1.0 mph 6.0 mph 87 % 0.00 in 199 W/m2
07:56 55.4 °F 51.6 °F 30.14 in West 4.0 mph 10.0 mph 87 % 0.00 in 218 W/m2
08:01 55.8 °F 51.6 °F 30.13 in West 7.0 mph 13.0 mph 86 % 0.00 in 237 W/m2
08:06 56.3 °F 52.2 °F 30.13 in West 8.0 mph 13.0 mph 86 % 0.00 in 251 W/m2
08:11 56.8 °F 52.4 °F 30.14 in West 8.0 mph 12.0 mph 85 % 0.00 in 260 W/m2
08:16 57.4 °F 52.6 °F 30.14 in WNW 8.0 mph 14.0 mph 84 % 0.00 in 276 W/m2
08:21 57.9 °F 52.8 °F 30.14 in WNW 8.0 mph 15.0 mph 83 % 0.00 in 288 W/m2
08:26 58.3 °F 52.5 °F 30.14 in WNW 8.0 mph 15.0 mph 81 % 0.00 in 308 W/m2
08:31 58.5 °F 52.3 °F 30.14 in West 8.0 mph 18.0 mph 80 % 0.00 in 318 W/m2
08:36 58.6 °F 52.5 °F 30.14 in West 8.0 mph 18.0 mph 80 % 0.00 in 334 W/m2
08:41 58.6 °F 52.1 °F 30.14 in West 9.0 mph 16.0 mph 79 % 0.00 in 355 W/m2
08:46 58.8 °F 52.0 °F 30.14 in West 11.0 mph 19.0 mph 78 % 0.00 in 360 W/m2
08:51 59.0 °F 52.1 °F 30.14 in West 11.0 mph 19.0 mph 78 % 0.00 in 376 W/m2
08:56 59.4 °F 52.5 °F 30.14 in West 10.0 mph 16.0 mph 78 % 0.00 in 378 W/m2
09:01 59.5 °F 52.3 °F 30.15 in West 9.0 mph 15.0 mph 77 % 0.00 in 396 W/m2
09:06 60.1 °F 52.1 °F 30.14 in West 9.0 mph 18.0 mph 75 % 0.00 in 403 W/m2
09:11 60.3 °F 51.9 °F 30.14 in WNW 11.0 mph 18.0 mph 74 % 0.00 in 424 W/m2
09:16 60.3 °F 51.6 °F 30.15 in West 11.0 mph 20.0 mph 73 % 0.00 in 439 W/m2
09:21 60.4 °F 51.7 °F 30.15 in West 11.0 mph 20.0 mph 73 % 0.00 in 443 W/m2
09:26 60.8 °F 51.3 °F 30.15 in WNW 11.0 mph 18.0 mph 71 % 0.00 in 466 W/m2
09:31 61.2 °F 51.7 °F 30.15 in WNW 10.0 mph 18.0 mph 71 % 0.00 in 482 W/m2
09:37 61.3 °F 51.9 °F 30.15 in West 10.0 mph 15.0 mph 71 % 0.00 in 487 W/m2
09:42 61.3 °F 51.5 °F 30.15 in West 10.0 mph 16.0 mph 70 % 0.00 in 506 W/m2
09:47 61.2 °F 51.3 °F 30.15 in West 10.0 mph 16.0 mph 70 % 0.00 in 510 W/m2
09:52 61.5 °F 52.0 °F 30.15 in West 9.0 mph 16.0 mph 71 % 0.00 in 531 W/m2
09:57 61.9 °F 51.6 °F 30.15 in West 8.0 mph 15.0 mph 69 % 0.00 in 559 W/m2
10:02 62.2 °F 51.9 °F 30.15 in West 9.0 mph 15.0 mph 69 % 0.00 in 550 W/m2
10:07 62.6 °F 51.5 °F 30.16 in WNW 9.0 mph 15.0 mph 67 % 0.00 in 571 W/m2
10:12 62.8 °F 51.2 °F 30.16 in WNW 9.0 mph 14.0 mph 66 % 0.00 in 587 W/m2
10:17 62.8 °F 51.2 °F 30.16 in WNW 9.0 mph 14.0 mph 66 % 0.00 in 199 W/m2
10:22 63.0 °F 51.0 °F 30.16 in WNW 8.0 mph 13.0 mph 65 % 0.00 in 636 W/m2
10:27 63.1 °F 50.3 °F 30.16 in West 9.0 mph 16.0 mph 63 % 0.00 in 675 W/m2
10:32 63.0 °F 49.7 °F 30.16 in West 11.0 mph 20.0 mph 62 % 0.00 in 647 W/m2
10:37 63.1 °F 49.9 °F 30.16 in WNW 10.0 mph 20.0 mph 62 % 0.00 in 659 W/m2
10:42 63.7 °F 50.0 °F 30.16 in WNW 9.0 mph 15.0 mph 61 % 0.00 in 671 W/m2
10:47 63.9 °F 50.6 °F 30.16 in West 10.0 mph 19.0 mph 62 % 0.00 in 765 W/m2
10:52 64.2 °F 50.9 °F 30.16 in West 10.0 mph 19.0 mph 62 % 0.00 in 327 W/m2
10:57 63.7 °F 50.0 °F 30.16 in West 10.0 mph 19.0 mph 61 % 0.00 in 334 W/m2
11:02 63.9 °F 50.1 °F 30.16 in West 10.0 mph 19.0 mph 61 % 0.00 in 404 W/m2
11:07 64.0 °F 49.9 °F 30.16 in WNW 9.0 mph 18.0 mph 60 % 0.00 in 295 W/m2
11:12 63.9 °F 49.7 °F 30.16 in WNW 10.0 mph 16.0 mph 60 % 0.00 in 332 W/m2
11:16 63.7 °F 50.0 °F 30.16 in West 9.0 mph 16.0 mph 61 % 0.00 in 849 W/m2
11:21 64.0 °F 50.3 °F 30.16 in West 10.0 mph 21.0 mph 61 % 0.00 in 962 W/m2
11:26 64.6 °F 50.4 °F 30.16 in WNW 10.0 mph 21.0 mph 60 % 0.00 in 881 W/m2
11:31 64.9 °F 50.3 °F 30.16 in WNW 10.0 mph 18.0 mph 59 % 0.00 in 791 W/m2
11:36 64.9 °F 50.3 °F 30.16 in WNW 9.0 mph 18.0 mph 59 % 0.00 in 220 W/m2
11:41 64.6 °F 50.4 °F 30.16 in West 9.0 mph 15.0 mph 60 % 0.00 in 244 W/m2
11:46 64.0 °F 48.5 °F 30.16 in West 9.0 mph 15.0 mph 57 % 0.00 in 287 W/m2
11:51 63.9 °F 49.2 °F 30.16 in West 8.0 mph 14.0 mph 59 % 0.00 in 833 W/m2
11:56 64.8 °F 49.6 °F 30.16 in West 7.0 mph 13.0 mph 58 % 0.00 in 821 W/m2
12:01 65.5 °F 49.8 °F 30.16 in West 8.0 mph 16.0 mph 57 % 0.00 in 262 W/m2
12:06 65.5 °F 49.4 °F 30.16 in West 8.0 mph 16.0 mph 56 % 0.00 in 294 W/m2
12:11 65.3 °F 49.2 °F 30.17 in West 8.0 mph 13.0 mph 56 % 0.00 in 283 W/m2
12:16 64.9 °F 48.9 °F 30.16 in West 8.0 mph 18.0 mph 56 % 0.00 in 271 W/m2
12:21 64.9 °F 48.4 °F 30.17 in WNW 7.0 mph 18.0 mph 55 % 0.00 in 221 W/m2
12:26 64.8 °F 48.7 °F 30.17 in WNW 6.0 mph 12.0 mph 56 % 0.00 in 221 W/m2
12:31 64.4 °F 48.8 °F 30.16 in West 8.0 mph 13.0 mph 57 % 0.00 in 221 W/m2
12:36 64.0 °F 49.0 °F 30.16 in West 8.0 mph 13.0 mph 58 % 0.00 in 322 W/m2
12:41 64.0 °F 49.4 °F 30.17 in West 7.0 mph 11.0 mph 59 % 0.00 in 309 W/m2
12:46 64.0 °F 49.4 °F 30.17 in West 7.0 mph 11.0 mph 59 % 0.00 in 323 W/m2
12:47 64.0 °F 49.9 °F 30.17 in West 7.0 mph 11.0 mph 60 % 0.00 in 323 W/m2
12:52 64.0 °F 50.8 °F 30.17 in West 7.0 mph 13.0 mph 62 % 0.00 in 299 W/m2
12:57 64.0 °F 50.8 °F 30.17 in West 8.0 mph 14.0 mph 62 % 0.00 in 336 W/m2
13:02 63.9 °F 50.6 °F 30.17 in West 9.0 mph 14.0 mph 62 % 0.00 in 320 W/m2
13:07 63.7 °F 50.0 °F 30.17 in WSW 8.0 mph 13.0 mph 61 % 0.00 in 297 W/m2
13:12 63.5 °F 49.8 °F 30.18 in WSW 8.0 mph 13.0 mph 61 % 0.00 in 281 W/m2
13:17 63.5 °F 50.2 °F 30.18 in WSW 8.0 mph 13.0 mph 62 % 0.00 in 243 W/m2
13:22 63.7 °F 50.0 °F 30.18 in WSW 7.0 mph 12.0 mph 61 % 0.00 in 278 W/m2
13:27 63.7 °F 50.8 °F 30.17 in West 7.0 mph 11.0 mph 63 % 0.00 in 410 W/m2
13:32 64.0 °F 50.3 °F 30.17 in West 7.0 mph 13.0 mph 61 % 0.00 in 325 W/m2
13:37 64.4 °F 50.2 °F 30.17 in West 7.0 mph 13.0 mph 60 % 0.00 in 369 W/m2
13:42 64.6 °F 50.8 °F 30.17 in West 8.0 mph 15.0 mph 61 % 0.00 in 373 W/m2
13:47 64.6 °F 50.4 °F 30.18 in WSW 9.0 mph 15.0 mph 60 % 0.00 in 589 W/m2
13:52 64.8 °F 50.5 °F 30.17 in West 9.0 mph 14.0 mph 60 % 0.00 in 436 W/m2
13:58 64.9 °F 50.7 °F 30.17 in West 8.0 mph 13.0 mph 60 % 0.00 in 410 W/m2
14:03 65.3 °F 51.1 °F 30.17 in West 7.0 mph 15.0 mph 60 % 0.00 in 526 W/m2
14:08 65.3 °F 50.6 °F 30.17 in WSW 8.0 mph 15.0 mph 59 % 0.00 in 802 W/m2
14:13 65.5 °F 50.3 °F 30.17 in WSW 9.0 mph 14.0 mph 58 % 0.00 in 397 W/m2
14:18 66.0 °F 49.9 °F 30.17 in West 8.0 mph 13.0 mph 56 % 0.00 in 740 W/m2
14:23 66.7 °F 50.1 °F 30.17 in West 7.0 mph 13.0 mph 55 % 0.00 in 591 W/m2
14:28 66.9 °F 49.7 °F 30.17 in West 8.0 mph 13.0 mph 54 % 0.00 in 394 W/m2
14:33 67.3 °F 49.6 °F 30.17 in West 7.0 mph 13.0 mph 53 % 0.00 in 353 W/m2
14:38 67.3 °F 49.6 °F 30.17 in West 7.0 mph 11.0 mph 53 % 0.00 in 582 W/m2
14:43 67.1 °F 49.4 °F 30.17 in West 6.0 mph 10.0 mph 53 % 0.00 in 427 W/m2
14:48 67.3 °F 49.6 °F 30.17 in WSW 6.0 mph 9.0 mph 53 % 0.00 in 735 W/m2
14:53 67.5 °F 49.7 °F 30.17 in WSW 6.0 mph 10.0 mph 53 % 0.00 in 705 W/m2
14:58 67.6 °F 49.4 °F 30.16 in WSW 7.0 mph 12.0 mph 52 % 0.00 in 297 W/m2
15:03 67.3 °F 49.0 °F 30.16 in WSW 6.0 mph 12.0 mph 52 % 0.00 in 271 W/m2
15:08 67.3 °F 49.6 °F 30.16 in WSW 6.0 mph 10.0 mph 53 % 0.00 in 510 W/m2
15:13 67.3 °F 50.1 °F 30.17 in West 7.0 mph 13.0 mph 54 % 0.00 in 309 W/m2
15:18 67.3 °F 49.6 °F 30.16 in West 7.0 mph 13.0 mph 53 % 0.00 in 237 W/m2
15:23 67.3 °F 50.6 °F 30.16 in West 6.0 mph 11.0 mph 55 % 0.00 in 299 W/m2
15:28 67.1 °F 50.9 °F 30.16 in West 6.0 mph 10.0 mph 56 % 0.00 in 515 W/m2
15:33 66.9 °F 49.7 °F 30.16 in West 7.0 mph 10.0 mph 54 % 0.00 in 322 W/m2
15:38 66.7 °F 50.1 °F 30.16 in West 7.0 mph 13.0 mph 55 % 0.00 in 304 W/m2
15:43 66.6 °F 49.9 °F 30.16 in West 7.0 mph 13.0 mph 55 % 0.00 in 297 W/m2
15:48 66.4 °F 50.2 °F 30.16 in West 7.0 mph 12.0 mph 56 % 0.00 in 292 W/m2
15:53 66.4 °F 50.2 °F 30.16 in West 6.0 mph 10.0 mph 56 % 0.00 in 262 W/m2
15:58 66.2 °F 50.0 °F 30.16 in WSW 6.0 mph 11.0 mph 56 % 0.00 in 269 W/m2
16:03 66.0 °F 49.9 °F 30.16 in WSW 6.0 mph 11.0 mph 56 % 0.00 in 246 W/m2
16:08 66.0 °F 49.9 °F 30.16 in West 6.0 mph 11.0 mph 56 % 0.00 in 227 W/m2
16:13 65.8 °F 49.7 °F 30.16 in West 6.0 mph 11.0 mph 56 % 0.00 in 221 W/m2
16:18 65.7 °F 50.0 °F 30.16 in West 6.0 mph 11.0 mph 57 % 0.00 in 225 W/m2
16:23 65.8 °F 49.7 °F 30.16 in West 6.0 mph 11.0 mph 56 % 0.00 in 236 W/m2
16:28 65.7 °F 50.0 °F 30.16 in West 6.0 mph 9.0 mph 57 % 0.00 in 237 W/m2
16:33 65.5 °F 50.3 °F 30.16 in WSW 5.0 mph 9.0 mph 58 % 0.00 in 237 W/m2
16:39 65.7 °F 50.5 °F 30.16 in West 4.0 mph 8.0 mph 58 % 0.00 in 316 W/m2
16:44 65.8 °F 50.2 °F 30.16 in West 4.0 mph 9.0 mph 57 % 0.00 in 274 W/m2
16:49 65.8 °F 49.7 °F 30.15 in West 6.0 mph 9.0 mph 56 % 0.00 in 265 W/m2
16:54 65.8 °F 49.7 °F 30.15 in West 6.0 mph 9.0 mph 56 % 0.00 in 234 W/m2
16:59 65.8 °F 50.2 °F 30.15 in West 4.0 mph 8.0 mph 57 % 0.00 in 186 W/m2
17:04 65.8 °F 50.2 °F 30.15 in WSW 3.0 mph 7.0 mph 57 % 0.00 in 188 W/m2
17:09 65.8 °F 49.7 °F 30.15 in WSW 3.0 mph 7.0 mph 56 % 0.00 in 163 W/m2
17:14 65.8 °F 49.2 °F 30.15 in WNW 4.0 mph 7.0 mph 55 % 0.00 in 137 W/m2
17:19 65.8 °F 49.7 °F 30.16 in WNW 4.0 mph 7.0 mph 56 % 0.00 in 111 W/m2
17:24 65.7 °F 49.5 °F 30.16 in WNW 4.0 mph 7.0 mph 56 % 0.00 in 88 W/m2
17:29 65.7 °F 49.5 °F 30.16 in NW 3.0 mph 7.0 mph 56 % 0.00 in 97 W/m2
17:34 65.5 °F 49.8 °F 30.16 in WNW 2.0 mph 6.0 mph 57 % 0.00 in 83 W/m2
17:39 65.5 °F 50.3 °F 30.16 in West 2.0 mph 5.0 mph 58 % 0.00 in 70 W/m2
17:44 65.3 °F 49.7 °F 30.16 in West 2.0 mph 5.0 mph 57 % 0.00 in 76 W/m2
17:49 65.1 °F 49.5 °F 30.16 in West 1.0 mph 5.0 mph 57 % 0.00 in 72 W/m2
17:54 65.1 °F 50.0 °F 30.16 in West 1.0 mph 5.0 mph 58 % 0.00 in 74 W/m2
17:59 64.9 °F 49.8 °F 30.16 in West 1.0 mph 4.0 mph 58 % 0.00 in 74 W/m2
18:04 64.8 °F 49.6 °F 30.16 in West 1.0 mph 4.0 mph 58 % 0.00 in 70 W/m2
18:09 64.6 °F 49.9 °F 30.15 in West 1.0 mph 4.0 mph 59 % 0.00 in 69 W/m2
18:14 64.6 °F 50.4 °F 30.15 in Calm   2.0 mph 60 % 0.00 in 72 W/m2
18:19 64.2 °F 50.9 °F 30.15 in Calm   2.0 mph 62 % 0.00 in 76 W/m2
18:24 64.0 °F 50.8 °F 30.15 in Calm   2.0 mph 62 % 0.00 in 72 W/m2
18:29 63.9 °F 50.6 °F 30.15 in Calm   1.0 mph 62 % 0.00 in 70 W/m2
18:34 63.5 °F 50.7 °F 30.15 in Calm   2.0 mph 63 % 0.00 in 65 W/m2
18:39 63.3 °F 50.9 °F 30.15 in Calm   2.0 mph 64 % 0.00 in 67 W/m2
18:44 63.3 °F 51.8 °F 30.15 in Calm   2.0 mph 66 % 0.00 in 72 W/m2
18:49 63.1 °F 51.6 °F 30.15 in Calm   2.0 mph 66 % 0.00 in 70 W/m2
18:54 63.0 °F 51.4 °F 30.15 in Calm     66 % 0.00 in 65 W/m2
18:59 63.0 °F 51.8 °F 30.15 in Calm     67 % 0.00 in 60 W/m2
19:04 62.8 °F 51.2 °F 30.15 in Calm     66 % 0.00 in 58 W/m2
19:09 62.8 °F 51.7 °F 30.15 in Calm     67 % 0.00 in 47 W/m2
19:14 62.8 °F 52.1 °F 30.15 in Calm     68 % 0.00 in 51 W/m2
19:19 63.0 °F 52.2 °F 30.15 in Calm     68 % 0.00 in 47 W/m2
19:24 63.0 °F 52.2 °F 30.15 in Calm     68 % 0.00 in 37 W/m2
19:29 63.0 °F 51.8 °F 30.15 in Calm     67 % 0.00 in 33 W/m2
19:34 62.8 °F 51.7 °F 30.15 in Calm     67 % 0.00 in 28 W/m2
19:39 62.8 °F 52.5 °F 30.15 in Calm     69 % 0.00 in 26 W/m2
19:44 62.6 °F 52.7 °F 30.15 in Calm     70 % 0.00 in 23 W/m2
19:49 62.4 °F 52.5 °F 30.15 in Calm     70 % 0.00 in 16 W/m2
19:54 62.4 °F 53.3 °F 30.15 in Calm     72 % 0.00 in 12 W/m2
19:59 62.2 °F 53.5 °F 30.15 in Calm     73 % 0.00 in 9 W/m2
20:04 62.2 °F 53.8 °F 30.15 in Calm     74 % 0.00 in 7 W/m2
20:09 62.1 °F 54.0 °F 30.15 in Calm     75 % 0.00 in 5 W/m2
20:14 61.9 °F 53.9 °F 30.15 in Calm     75 % 0.00 in 0 W/m2
20:19 61.5 °F 53.9 °F 30.15 in Calm     76 % 0.00 in 0 W/m2
20:24 61.3 °F 53.7 °F 30.15 in Calm     76 % 0.00 in 0 W/m2
20:29 61.2 °F 53.9 °F 30.15 in Calm     77 % 0.00 in 0 W/m2
20:34 61.0 °F 53.4 °F 30.15 in Calm     76 % 0.00 in 0 W/m2
20:39 60.6 °F 53.4 °F 30.16 in Calm     77 % 0.00 in 0 W/m2
20:44 60.4 °F 53.5 °F 30.15 in Calm     78 % 0.00 in 0 W/m2
20:49 60.4 °F 53.9 °F 30.16 in Calm     79 % 0.00 in 0 W/m2
20:54 60.3 °F 53.7 °F 30.16 in Calm     79 % 0.00 in 0 W/m2
20:59 60.1 °F 53.9 °F 30.16 in Calm     80 % 0.00 in 0 W/m2
21:04 59.9 °F 54.1 °F 30.16 in Calm     81 % 0.00 in 0 W/m2
21:10 59.7 °F 53.9 °F 30.16 in Calm     81 % 0.00 in 0 W/m2
21:15 59.7 °F 53.9 °F 30.16 in Calm     81 % 0.00 in 0 W/m2
21:20 59.5 °F 54.0 °F 30.17 in Calm     82 % 0.00 in 0 W/m2
21:25 59.5 °F 54.0 °F 30.17 in Calm     82 % 0.00 in 0 W/m2
21:30 59.4 °F 53.9 °F 30.17 in Calm     82 % 0.00 in 0 W/m2
21:35 59.4 °F 53.9 °F 30.17 in Calm     82 % 0.00 in 0 W/m2
21:40 59.2 °F 53.7 °F 30.17 in Calm     82 % 0.00 in 0 W/m2
21:45 59.2 °F 54.0 °F 30.17 in West 1.0 mph 5.0 mph 83 % 0.00 in 0 W/m2
21:50 58.8 °F 54.0 °F 30.17 in West 2.0 mph 6.0 mph 84 % 0.00 in 0 W/m2
21:55 58.5 °F 54.0 °F 30.17 in West 2.0 mph 6.0 mph 85 % 0.00 in 0 W/m2
22:00 58.3 °F 53.8 °F 30.17 in WSW 1.0 mph 4.0 mph 85 % 0.00 in 0 W/m2
22:05 57.9 °F 53.1 °F 30.17 in Calm     84 % 0.00 in 0 W/m2
22:10 57.7 °F 52.9 °F 30.17 in Calm     84 % 0.00 in 0 W/m2
22:15 57.7 °F 52.9 °F 30.17 in Calm     84 % 0.00 in 0 W/m2
22:20 57.6 °F 52.8 °F 30.16 in Calm     84 % 0.00 in 0 W/m2
22:25 57.6 °F 52.8 °F 30.16 in Calm     84 % 0.00 in 0 W/m2
22:30 57.4 °F 52.6 °F 30.17 in Calm     84 % 0.00 in 0 W/m2
22:35 57.4 °F 52.6 °F 30.16 in Calm     84 % 0.00 in 0 W/m2
22:40 57.2 °F 52.4 °F 30.17 in Calm   4.0 mph 84 % 0.00 in 0 W/m2
22:45 57.0 °F 52.6 °F 30.16 in Calm   4.0 mph 85 % 0.00 in 0 W/m2
22:50 56.8 °F 52.4 °F 30.16 in Calm   4.0 mph 85 % 0.00 in 0 W/m2
22:55 56.7 °F 51.9 °F 30.16 in Calm   4.0 mph 84 % 0.00 in 0 W/m2
23:01 56.5 °F 52.0 °F 30.16 in Calm   1.0 mph 85 % 0.00 in 0 W/m2
23:06 56.3 °F 51.8 °F 30.16 in Calm     85 % 0.00 in 0 W/m2
23:11 56.1 °F 51.7 °F 30.16 in Calm   4.0 mph 85 % 0.00 in 0 W/m2
23:16 55.9 °F 51.8 °F 30.16 in Calm   4.0 mph 86 % 0.00 in 0 W/m2
23:21 55.9 °F 51.8 °F 30.16 in Calm     86 % 0.00 in 0 W/m2
23:26 55.8 °F 51.6 °F 30.16 in Calm     86 % 0.00 in 0 W/m2
23:31 55.6 °F 51.8 °F 30.16 in Calm     87 % 0.00 in 0 W/m2
23:36 55.6 °F 51.8 °F 30.15 in Calm     87 % 0.00 in 0 W/m2
23:41 55.2 °F 51.4 °F 30.16 in Calm     87 % 0.00 in 0 W/m2
23:46 55.0 °F 51.5 °F 30.16 in Calm     88 % 0.00 in 0 W/m2
23:51 54.9 °F 51.4 °F 30.16 in Calm     88 % 0.00 in 0 W/m2
23:56 54.9 °F 51.7 °F 30.16 in Calm     89 % 0.00 in 0 W/m2
Delerius-Weather
Compliments of Weather Underground - 2.25 mb

Data updates at regular intervals.